createdAt,value
2023-01-19T00:00:53.297Z,2.20
2023-01-19T00:03:20.028Z,2.20
2023-01-19T00:05:46.720Z,2.20
2023-01-19T00:08:16.773Z,2.30
2023-01-19T00:10:46.275Z,2.30
2023-01-19T00:13:13.594Z,2.30
2023-01-19T00:15:40.309Z,2.30
2023-01-19T00:18:08.510Z,2.20
2023-01-19T00:20:36.343Z,2.20
2023-01-19T00:23:04.683Z,2.20
2023-01-19T00:25:31.579Z,2.20
2023-01-19T00:28:00.605Z,2.20
2023-01-19T00:30:28.440Z,2.20
2023-01-19T00:32:55.821Z,2.20
2023-01-19T00:35:22.512Z,2.10
2023-01-19T00:37:49.141Z,2.20
2023-01-19T00:40:15.930Z,2.10
2023-01-19T00:42:45.713Z,2.10
2023-01-19T00:45:15.400Z,2.10
2023-01-19T00:47:42.534Z,2.10
2023-01-19T00:50:11.742Z,2.10
2023-01-19T00:52:39.808Z,2.00
2023-01-19T00:55:08.438Z,2.00
2023-01-19T00:57:35.333Z,1.90
2023-01-19T01:00:02.191Z,1.90
2023-01-19T01:02:29.078Z,1.90
2023-01-19T01:04:56.773Z,2.00
2023-01-19T01:07:27.232Z,1.90
2023-01-19T01:09:53.951Z,1.90
2023-01-19T01:12:20.619Z,1.90
2023-01-19T01:14:47.293Z,1.90
2023-01-19T01:17:14.237Z,1.90
2023-01-19T01:19:41.655Z,1.90
2023-01-19T01:22:11.060Z,1.90
2023-01-19T01:24:38.187Z,1.80
2023-01-19T01:27:04.839Z,1.80
2023-01-19T01:29:31.458Z,1.70
2023-01-19T01:31:58.140Z,1.70
2023-01-19T01:34:24.835Z,1.60
2023-01-19T01:36:51.716Z,1.60
2023-01-19T01:39:18.498Z,1.60
2023-01-19T01:41:45.099Z,1.60
2023-01-19T01:44:49.565Z,1.70
2023-01-19T01:47:21.034Z,1.60
2023-01-19T01:49:48.385Z,1.60
2023-01-19T01:52:16.537Z,1.70
2023-01-19T01:54:43.765Z,1.70
2023-01-19T01:57:12.389Z,1.70
2023-01-19T01:59:45.379Z,1.80
2023-01-19T02:02:37.742Z,1.70
2023-01-19T02:05:09.117Z,1.30
2023-01-19T02:08:06.516Z,1.70
2023-01-19T02:10:51.863Z,1.70
2023-01-19T02:13:20.503Z,1.70
2023-01-19T02:15:51.733Z,1.70
2023-01-19T02:18:23.078Z,1.70
2023-01-19T02:21:14.369Z,1.80
2023-01-19T02:23:45.628Z,1.80
2023-01-19T02:26:48.940Z,1.80
2023-01-19T02:29:20.797Z,1.70
2023-01-19T02:31:47.780Z,1.70
2023-01-19T02:34:19.633Z,1.80
2023-01-19T02:36:51.154Z,1.80
2023-01-19T02:39:20.750Z,1.80
2023-01-19T02:41:55.578Z,1.90
2023-01-19T02:44:24.151Z,1.90
2023-01-19T02:46:54.145Z,1.90
2023-01-19T02:49:20.859Z,1.90
2023-01-19T02:51:47.790Z,1.90
2023-01-19T02:54:40.174Z,1.90
2023-01-19T02:57:30.001Z,1.90
2023-01-19T03:00:19.708Z,1.90
2023-01-19T03:03:15.149Z,2.00
2023-01-19T03:05:59.101Z,1.90
2023-01-19T03:08:38.682Z,1.90
2023-01-19T03:11:10.808Z,1.90
2023-01-19T03:13:46.429Z,1.90
2023-01-19T03:16:31.762Z,1.90
2023-01-19T03:19:06.423Z,2.00
2023-01-19T03:21:36.157Z,1.90
2023-01-19T03:24:06.286Z,1.90
2023-01-19T03:26:38.886Z,2.00
2023-01-19T03:29:06.980Z,2.00
2023-01-19T03:31:34.978Z,2.00
2023-01-19T03:34:06.740Z,2.00
2023-01-19T03:36:40.437Z,2.00
2023-01-19T03:39:09.670Z,1.90
2023-01-19T03:41:38.613Z,1.90
2023-01-19T03:44:07.573Z,2.00
2023-01-19T03:46:34.612Z,2.00
2023-01-19T03:49:01.287Z,2.00
2023-01-19T03:51:28.002Z,1.90
2023-01-19T03:53:54.628Z,1.90
2023-01-19T03:56:24.602Z,1.90
2023-01-19T03:58:51.810Z,1.90
2023-01-19T04:01:22.758Z,1.90
2023-01-19T04:03:50.572Z,1.90
2023-01-19T04:06:18.700Z,2.00
2023-01-19T04:08:47.079Z,1.90
2023-01-19T04:11:13.720Z,1.90
2023-01-19T04:13:40.516Z,1.90
2023-01-19T04:16:07.689Z,1.90
2023-01-19T04:18:35.494Z,1.90
2023-01-19T04:21:04.037Z,1.90
2023-01-19T04:23:31.161Z,1.90
2023-01-19T04:25:59.026Z,1.80
2023-01-19T04:28:26.232Z,1.80
2023-01-19T04:30:53.081Z,1.80
2023-01-19T04:33:20.465Z,1.80
2023-01-19T04:35:48.111Z,1.80
2023-01-19T04:38:14.896Z,1.80
2023-01-19T04:40:41.545Z,1.70
2023-01-19T04:43:08.563Z,1.70
2023-01-19T04:45:36.540Z,1.70
2023-01-19T04:48:04.285Z,1.70
2023-01-19T04:50:31.014Z,1.70
2023-01-19T04:52:58.365Z,1.70
2023-01-19T04:55:25.799Z,1.70
2023-01-19T04:57:52.553Z,1.70
2023-01-19T05:00:21.106Z,1.70
2023-01-19T05:02:47.841Z,2.10
2023-01-19T05:05:14.526Z,1.70
2023-01-19T05:07:42.534Z,1.60
2023-01-19T05:10:10.082Z,1.60
2023-01-19T05:12:36.935Z,1.70
2023-01-19T05:15:04.414Z,1.60
2023-01-19T05:17:31.194Z,1.60
2023-01-19T05:19:57.901Z,1.60
2023-01-19T05:22:24.565Z,1.60
2023-01-19T05:24:51.409Z,1.60
2023-01-19T05:27:18.059Z,1.60
2023-01-19T05:29:44.722Z,1.70
2023-01-19T05:32:11.995Z,1.70
2023-01-19T05:34:39.351Z,1.70
2023-01-19T05:37:06.039Z,1.70
2023-01-19T05:39:33.418Z,1.80
2023-01-19T05:42:00.146Z,1.80
2023-01-19T05:44:28.125Z,1.80
2023-01-19T05:46:54.831Z,1.90
2023-01-19T05:49:21.470Z,1.90
2023-01-19T05:51:48.071Z,2.00
2023-01-19T05:54:15.470Z,2.00
2023-01-19T05:56:42.442Z,2.00
2023-01-19T05:59:09.672Z,2.00
2023-01-19T06:01:38.924Z,2.10
2023-01-19T06:04:06.627Z,2.10
2023-01-19T06:06:33.373Z,2.20
2023-01-19T06:09:00.024Z,2.30
2023-01-19T06:11:26.717Z,2.30
2023-01-19T06:13:53.357Z,2.40
2023-01-19T06:16:20.084Z,2.40
2023-01-19T06:18:46.805Z,2.40
2023-01-19T06:21:14.315Z,2.40
2023-01-19T06:23:41.169Z,2.50
2023-01-19T06:26:07.842Z,2.50
2023-01-19T06:28:34.518Z,2.40
2023-01-19T06:31:01.519Z,2.40
2023-01-19T06:33:28.681Z,2.40
2023-01-19T06:35:56.156Z,2.40
2023-01-19T06:38:23.413Z,2.40
2023-01-19T06:40:55.324Z,2.40
2023-01-19T06:43:22.270Z,2.50
2023-01-19T06:45:50.205Z,2.40
2023-01-19T06:48:17.104Z,2.40
2023-01-19T06:50:47.394Z,2.40
2023-01-19T06:53:16.532Z,2.40
2023-01-19T06:55:44.059Z,2.40
2023-01-19T06:58:11.727Z,2.40
2023-01-19T07:00:38.538Z,2.40
2023-01-19T07:03:08.803Z,2.40
2023-01-19T07:05:36.140Z,2.40
2023-01-19T07:08:03.909Z,2.40
2023-01-19T07:11:24.658Z,2.40
2023-01-19T07:13:17.991Z,2.50
2023-01-19T07:15:44.620Z,2.50
2023-01-19T07:18:11.350Z,2.50
2023-01-19T07:20:38.357Z,2.50
2023-01-19T07:23:07.767Z,2.40
2023-01-19T07:25:34.606Z,2.50
2023-01-19T07:28:01.616Z,2.40
2023-01-19T07:30:28.610Z,2.50
2023-01-19T07:32:57.802Z,2.50
2023-01-19T07:35:25.608Z,2.50
2023-01-19T07:37:52.380Z,2.60
2023-01-19T07:40:19.174Z,2.60
2023-01-19T07:42:48.471Z,2.60
2023-01-19T07:45:16.929Z,2.60
2023-01-19T07:47:45.200Z,2.60
2023-01-19T07:50:13.718Z,2.60
2023-01-19T07:52:40.488Z,2.60
2023-01-19T07:55:08.399Z,2.60
2023-01-19T07:57:35.779Z,2.70
2023-01-19T08:00:03.404Z,2.80
2023-01-19T08:02:30.197Z,2.80
2023-01-19T08:04:57.154Z,2.80
2023-01-19T08:07:23.816Z,2.80
2023-01-19T08:09:50.648Z,2.90
2023-01-19T08:12:18.202Z,2.90
2023-01-19T08:14:44.840Z,2.90
2023-01-19T08:17:14.444Z,3.00
2023-01-19T08:19:42.847Z,3.00
2023-01-19T08:22:09.570Z,3.00
2023-01-19T08:24:36.177Z,3.00
2023-01-19T08:27:03.807Z,3.00
2023-01-19T08:29:31.753Z,3.00
2023-01-19T08:32:00.188Z,2.90
2023-01-19T08:34:27.198Z,2.90
2023-01-19T08:36:54.251Z,2.90
2023-01-19T08:39:21.200Z,3.00
2023-01-19T08:41:47.796Z,3.00
2023-01-19T08:44:14.470Z,2.90
2023-01-19T08:46:41.188Z,2.90
2023-01-19T08:49:08.626Z,2.90
2023-01-19T08:51:35.375Z,2.90
2023-01-19T08:54:02.010Z,2.90
2023-01-19T08:56:28.980Z,2.90
2023-01-19T08:59:08.244Z,2.90
2023-01-19T09:01:37.174Z,3.00
2023-01-19T09:04:04.579Z,3.10
2023-01-19T09:06:31.481Z,3.10
2023-01-19T09:08:58.189Z,3.20
2023-01-19T09:11:24.785Z,3.30
2023-01-19T09:13:51.655Z,3.40
2023-01-19T09:16:18.446Z,3.50
2023-01-19T09:18:45.938Z,3.60
2023-01-19T09:21:13.742Z,3.50
2023-01-19T09:23:40.560Z,4.10
2023-01-19T09:26:07.272Z,4.30
2023-01-19T09:28:33.934Z,4.40
2023-01-19T09:31:06.117Z,4.70
2023-01-19T09:33:33.800Z,5.10
2023-01-19T09:36:01.995Z,5.40
2023-01-19T09:38:31.560Z,5.30
2023-01-19T09:40:59.215Z,5.20
2023-01-19T09:43:48.047Z,5.10
2023-01-19T09:46:40.077Z,5.00
2023-01-19T09:49:33.249Z,4.90
2023-01-19T09:52:00.413Z,4.80
2023-01-19T09:54:57.435Z,4.70
2023-01-19T09:57:25.192Z,4.60
2023-01-19T09:59:57.795Z,4.60
2023-01-19T10:02:35.576Z,4.90
2023-01-19T10:05:05.296Z,5.00
2023-01-19T10:07:55.276Z,4.90
2023-01-19T10:10:27.950Z,4.80
2023-01-19T10:13:22.138Z,4.90
2023-01-19T10:16:22.928Z,5.10
2023-01-19T10:18:52.654Z,5.10
2023-01-19T10:21:31.547Z,5.10
2023-01-19T10:24:01.436Z,5.40
2023-01-19T10:26:33.857Z,5.60
2023-01-19T10:29:12.166Z,5.90
2023-01-19T10:31:42.282Z,6.00
2023-01-19T10:34:20.448Z,6.20
2023-01-19T10:36:59.401Z,6.20
2023-01-19T10:39:26.416Z,6.10
2023-01-19T10:41:53.820Z,6.10
2023-01-19T10:44:28.493Z,6.30
2023-01-19T10:46:58.595Z,6.40
2023-01-19T10:49:37.425Z,6.70
2023-01-19T10:52:20.755Z,6.90
2023-01-19T10:54:50.165Z,7.00
2023-01-19T10:57:36.964Z,7.30
2023-01-19T11:00:05.855Z,7.60
2023-01-19T11:02:33.373Z,8.00
2023-01-19T11:05:24.457Z,8.40
2023-01-19T11:07:51.524Z,8.90
2023-01-19T11:10:20.811Z,9.10
2023-01-19T11:12:56.306Z,9.40
2023-01-19T11:15:27.494Z,9.60
2023-01-19T11:17:54.576Z,9.70
2023-01-19T11:20:27.149Z,9.70
2023-01-19T11:23:15.932Z,9.60
2023-01-19T11:25:47.411Z,9.10
2023-01-19T11:28:27.139Z,8.80
2023-01-19T11:31:14.073Z,8.50
2023-01-19T11:33:46.454Z,8.20
2023-01-19T11:36:21.073Z,8.10
2023-01-19T11:38:50.617Z,7.70
2023-01-19T11:41:29.720Z,7.40
2023-01-19T11:44:22.466Z,7.40
2023-01-19T11:46:56.454Z,7.40
2023-01-19T11:49:44.109Z,7.50
2023-01-19T11:52:19.461Z,7.10
2023-01-19T11:54:57.677Z,7.10
2023-01-19T11:57:24.581Z,7.00
2023-01-19T11:59:51.374Z,7.00
2023-01-19T12:02:30.949Z,6.70
2023-01-19T12:05:06.399Z,6.80
2023-01-19T12:07:36.083Z,6.90
2023-01-19T12:10:28.141Z,7.00
2023-01-19T12:12:56.542Z,6.90
2023-01-19T12:15:26.058Z,6.90
2023-01-19T12:17:58.364Z,6.90
2023-01-19T12:20:42.033Z,6.90
2023-01-19T12:23:23.903Z,7.00
2023-01-19T12:25:59.338Z,6.90
2023-01-19T12:28:34.998Z,6.80
2023-01-19T12:31:01.775Z,6.90
2023-01-19T12:33:33.300Z,6.80
2023-01-19T12:36:23.301Z,6.80
2023-01-19T12:38:52.187Z,6.90
2023-01-19T12:41:24.744Z,6.80
2023-01-19T12:44:19.322Z,6.80
2023-01-19T12:46:50.656Z,6.70
2023-01-19T12:49:34.033Z,6.70
2023-01-19T12:52:40.432Z,6.60
2023-01-19T12:55:13.135Z,6.60
2023-01-19T12:58:04.687Z,6.30
2023-01-19T13:00:38.928Z,6.20
2023-01-19T13:03:25.522Z,6.10
2023-01-19T13:05:56.831Z,6.00
2023-01-19T13:08:24.684Z,6.00
2023-01-19T13:11:00.437Z,5.80
2023-01-19T13:13:28.936Z,5.70
2023-01-19T13:15:57.052Z,5.60
2023-01-19T13:18:35.044Z,5.70
2023-01-19T13:21:05.813Z,5.50
2023-01-19T13:23:47.446Z,5.60
2023-01-19T13:26:16.964Z,5.60
2023-01-19T13:28:46.203Z,5.50
2023-01-19T13:31:14.007Z,5.50
2023-01-19T13:33:56.254Z,5.50
2023-01-19T13:36:30.390Z,5.50
2023-01-19T13:39:00.295Z,5.60
2023-01-19T13:41:30.657Z,5.60
2023-01-19T13:44:13.690Z,5.70
2023-01-19T13:46:41.257Z,5.60
2023-01-19T13:49:18.465Z,5.60
2023-01-19T13:51:45.091Z,5.60
2023-01-19T13:54:17.956Z,5.60
2023-01-19T13:56:50.203Z,5.60
2023-01-19T13:59:16.991Z,5.50
2023-01-19T14:01:46.438Z,5.40
2023-01-19T14:04:33.359Z,5.40
2023-01-19T14:07:06.757Z,5.40
2023-01-19T14:09:33.429Z,5.40
2023-01-19T14:12:17.511Z,5.50
2023-01-19T14:14:49.434Z,5.50
2023-01-19T14:17:27.969Z,5.40
2023-01-19T14:19:57.155Z,5.40
2023-01-19T14:22:41.971Z,5.30
2023-01-19T14:25:28.003Z,5.30
2023-01-19T14:28:25.323Z,5.20
2023-01-19T14:31:04.518Z,5.20
2023-01-19T14:33:43.490Z,5.10
2023-01-19T14:36:27.404Z,5.10
2023-01-19T14:38:56.302Z,5.10
2023-01-19T14:41:36.534Z,4.90
2023-01-19T14:44:08.917Z,4.90
2023-01-19T14:46:35.847Z,4.80
2023-01-19T14:49:04.606Z,4.80
2023-01-19T14:51:32.376Z,4.80
2023-01-19T14:54:01.420Z,4.70
2023-01-19T14:56:31.161Z,4.70
2023-01-19T14:58:59.415Z,4.70
2023-01-19T15:01:31.792Z,4.80
2023-01-19T15:03:58.728Z,4.70
2023-01-19T15:06:26.683Z,4.80
2023-01-19T15:08:54.271Z,4.80
2023-01-19T15:11:28.367Z,4.70
2023-01-19T15:13:57.734Z,4.80
2023-01-19T15:16:25.795Z,4.80
2023-01-19T15:18:52.534Z,4.70
2023-01-19T15:21:23.128Z,4.70
2023-01-19T15:23:50.455Z,4.60
2023-01-19T15:26:19.300Z,4.60
2023-01-19T15:28:46.836Z,4.50
2023-01-19T15:31:16.183Z,4.50
2023-01-19T15:33:43.319Z,4.50
2023-01-19T15:36:17.624Z,4.40
2023-01-19T15:38:44.962Z,4.50
2023-01-19T15:41:29.730Z,4.50
2023-01-19T15:43:56.678Z,4.40
2023-01-19T15:46:25.702Z,4.40
2023-01-19T15:48:53.501Z,4.40
2023-01-19T15:51:22.525Z,4.40
2023-01-19T15:53:50.714Z,4.40
2023-01-19T15:56:24.514Z,4.40
2023-01-19T15:58:52.275Z,4.20
2023-01-19T16:01:22.083Z,4.10
2023-01-19T16:03:49.633Z,3.90
2023-01-19T16:06:17.748Z,3.80
2023-01-19T16:08:45.028Z,3.70
2023-01-19T16:11:14.977Z,3.70
2023-01-19T16:13:46.194Z,3.70
2023-01-19T16:16:18.275Z,3.70
2023-01-19T16:18:45.655Z,3.80
2023-01-19T16:21:12.473Z,3.80
2023-01-19T16:23:39.132Z,3.80
2023-01-19T16:26:08.289Z,3.80
2023-01-19T16:28:36.969Z,3.80
2023-01-19T16:31:04.586Z,3.80
2023-01-19T16:33:31.395Z,3.80
2023-01-19T16:35:58.071Z,3.70
2023-01-19T16:38:24.870Z,3.60
2023-01-19T16:40:51.557Z,3.60
2023-01-19T16:43:18.698Z,3.50
2023-01-19T16:46:00.481Z,3.50
2023-01-19T16:48:27.750Z,3.40
2023-01-19T16:51:02.793Z,3.30
2023-01-19T16:53:30.021Z,3.30
2023-01-19T16:55:56.696Z,3.20
2023-01-19T16:58:23.765Z,3.20
2023-01-19T17:00:50.556Z,3.10
2023-01-19T17:03:17.297Z,3.20
2023-01-19T17:05:50.061Z,3.10
2023-01-19T17:08:20.450Z,3.00
2023-01-19T17:10:47.802Z,2.90
2023-01-19T17:13:14.558Z,2.90
2023-01-19T17:15:41.262Z,2.90
2023-01-19T17:18:07.998Z,2.90
2023-01-19T17:20:34.639Z,2.90
2023-01-19T17:23:01.325Z,2.90
2023-01-19T17:25:27.998Z,2.90
2023-01-19T17:27:54.706Z,2.90
2023-01-19T17:30:21.590Z,2.90
2023-01-19T17:32:48.252Z,2.90
2023-01-19T17:35:14.967Z,2.90
2023-01-19T17:37:41.562Z,2.80
2023-01-19T17:40:09.284Z,2.80
2023-01-19T17:42:40.771Z,2.70
2023-01-19T17:45:08.531Z,2.70
2023-01-19T17:47:35.112Z,2.60
2023-01-19T17:50:01.783Z,2.60
2023-01-19T17:52:28.409Z,2.60
2023-01-19T17:54:55.067Z,2.50
2023-01-19T17:57:21.724Z,2.60
2023-01-19T17:59:48.403Z,2.50
2023-01-19T18:02:15.307Z,2.50
2023-01-19T18:04:42.168Z,2.50
2023-01-19T18:07:08.936Z,2.50
2023-01-19T18:09:35.567Z,2.50
2023-01-19T18:12:02.239Z,2.40
2023-01-19T18:14:28.914Z,2.30
2023-01-19T18:16:55.516Z,2.30
2023-01-19T18:19:22.930Z,2.20
2023-01-19T18:21:49.580Z,2.20
2023-01-19T18:24:16.239Z,2.20
2023-01-19T18:26:42.828Z,2.10
2023-01-19T18:29:09.478Z,2.00
2023-01-19T18:31:36.135Z,2.00
2023-01-19T18:34:03.182Z,1.90
2023-01-19T18:36:32.047Z,1.90
2023-01-19T18:38:58.828Z,1.80
2023-01-19T18:41:25.494Z,1.80
2023-01-19T18:43:54.452Z,1.70
2023-01-19T18:46:21.272Z,1.70
2023-01-19T18:48:47.944Z,1.70
2023-01-19T18:51:16.167Z,1.70
2023-01-19T18:53:43.318Z,1.70
2023-01-19T18:56:13.508Z,1.70
2023-01-19T18:58:40.212Z,1.70
2023-01-19T19:01:22.494Z,1.60
2023-01-19T19:03:49.583Z,1.60
2023-01-19T19:06:18.995Z,1.70
2023-01-19T19:08:45.706Z,1.70
2023-01-19T19:11:14.183Z,1.70
2023-01-19T19:13:41.264Z,1.70
2023-01-19T19:16:10.292Z,1.60
2023-01-19T19:18:38.073Z,1.60
2023-01-19T19:21:09.700Z,1.60
2023-01-19T19:23:37.105Z,1.60
2023-01-19T19:26:09.557Z,1.60
2023-01-19T19:28:37.263Z,1.60
2023-01-19T19:31:15.595Z,1.50
2023-01-19T19:33:42.342Z,1.50
2023-01-19T19:36:10.038Z,1.50
2023-01-19T19:38:36.842Z,1.40
2023-01-19T19:41:08.813Z,1.40
2023-01-19T19:43:36.351Z,1.40
2023-01-19T19:46:20.013Z,1.40
2023-01-19T19:48:48.295Z,1.40
2023-01-19T19:51:22.625Z,1.40
2023-01-19T19:53:51.788Z,1.40
2023-01-19T19:56:21.192Z,1.30
2023-01-19T19:58:48.441Z,1.30
2023-01-19T20:01:18.551Z,1.30
2023-01-19T20:03:45.570Z,1.30
2023-01-19T20:06:14.940Z,1.20
2023-01-19T20:08:42.081Z,1.20
2023-01-19T20:11:14.266Z,1.10
2023-01-19T20:13:42.615Z,1.20
2023-01-19T20:16:12.627Z,1.10
2023-01-19T20:18:40.825Z,1.20
2023-01-19T20:21:12.896Z,1.20
2023-01-19T20:23:40.358Z,1.20
2023-01-19T20:26:08.939Z,1.20
2023-01-19T20:28:36.895Z,1.20
2023-01-19T20:31:22.892Z,1.20
2023-01-19T20:33:51.353Z,1.20
2023-01-19T20:36:18.211Z,1.20
2023-01-19T20:38:44.961Z,1.20
2023-01-19T20:41:12.892Z,1.20
2023-01-19T20:43:39.931Z,1.10
2023-01-19T20:46:07.088Z,1.10
2023-01-19T20:48:34.021Z,1.00
2023-01-19T20:51:11.953Z,1.00
2023-01-19T20:53:40.588Z,1.00
2023-01-19T20:56:12.272Z,1.00
2023-01-19T20:58:39.418Z,0.90
2023-01-19T21:01:25.067Z,0.90
2023-01-19T21:03:52.154Z,0.90
2023-01-19T21:06:20.141Z,0.80
2023-01-19T21:08:47.057Z,0.80
2023-01-19T21:11:13.714Z,0.80
2023-01-19T21:13:40.364Z,0.80
2023-01-19T21:16:07.489Z,0.80
2023-01-19T21:18:34.144Z,0.80
2023-01-19T21:21:00.803Z,0.80
2023-01-19T21:23:28.237Z,0.70
2023-01-19T21:26:03.674Z,0.70
2023-01-19T21:28:31.651Z,0.70
2023-01-19T21:31:04.454Z,0.60
2023-01-19T21:33:31.891Z,0.70
2023-01-19T21:35:58.752Z,0.60
2023-01-19T21:38:27.413Z,0.60
2023-01-19T21:40:55.375Z,0.60
2023-01-19T21:43:22.511Z,0.60
2023-01-19T21:45:49.529Z,0.60
2023-01-19T21:48:17.314Z,0.50
2023-01-19T21:50:44.067Z,0.50
2023-01-19T21:53:11.465Z,0.40
2023-01-19T21:55:42.761Z,0.40
2023-01-19T21:58:09.423Z,0.30
2023-01-19T22:00:36.112Z,0.30
2023-01-19T22:03:04.481Z,0.30
2023-01-19T22:05:36.714Z,0.30
2023-01-19T22:08:04.211Z,0.30
2023-01-19T22:10:30.880Z,0.30
2023-01-19T22:12:57.571Z,0.30
2023-01-19T22:15:24.194Z,0.20
2023-01-19T22:17:50.882Z,0.30
2023-01-19T22:20:17.564Z,0.20
2023-01-19T22:22:44.217Z,0.20
2023-01-19T22:25:11.189Z,0.20
2023-01-19T22:27:38.693Z,0.10
2023-01-19T22:30:05.976Z,0.10
2023-01-19T22:32:32.739Z,0.10
2023-01-19T22:34:59.319Z,0.10
2023-01-19T22:37:25.941Z,0.00
2023-01-19T22:39:53.259Z,0.00
2023-01-19T22:42:19.878Z,0.10
2023-01-19T22:44:46.905Z,0.00
2023-01-19T22:47:13.572Z,0.00
2023-01-19T22:49:40.731Z,-0.10
2023-01-19T22:52:07.546Z,-0.10
2023-01-19T22:54:34.237Z,-0.10
2023-01-19T22:57:00.939Z,-0.10
2023-01-19T22:59:27.597Z,-0.10
2023-01-19T23:01:54.411Z,-0.10
2023-01-19T23:04:21.176Z,-0.20
2023-01-19T23:06:50.433Z,-0.10
2023-01-19T23:09:18.083Z,-0.20
2023-01-19T23:11:53.195Z,-0.20
2023-01-19T23:14:21.709Z,-0.20
2023-01-19T23:16:48.531Z,-0.30
2023-01-19T23:19:17.205Z,-0.30
2023-01-19T23:21:44.918Z,-0.30
2023-01-19T23:24:12.171Z,-0.30
2023-01-19T23:26:39.057Z,-0.30
2023-01-19T23:29:14.596Z,-0.30
2023-01-19T23:31:49.100Z,-0.30
2023-01-19T23:34:16.941Z,-0.30
2023-01-19T23:36:44.125Z,-0.30
2023-01-19T23:39:19.377Z,-0.30
2023-01-19T23:41:46.665Z,-0.20
2023-01-19T23:44:13.404Z,-0.20
2023-01-19T23:46:40.252Z,-0.20
2023-01-19T23:49:06.989Z,-0.20
2023-01-19T23:51:33.856Z,-0.10
2023-01-19T23:54:08.132Z,-0.10
2023-01-19T23:56:37.781Z,-0.10
2023-01-19T23:59:08.427Z,0.00
